sensor_id;sensor_type;location;lat;lon;timestamp;P1;P2;P0
61804;PMS7003;47725;47.912;7.356;2022-09-25T00:01:34;2.37;1.58;
61804;PMS7003;47725;47.912;7.356;2022-09-25T00:05:37;2.37;1.58;
61804;PMS7003;47725;47.912;7.356;2022-09-25T00:09:33;2.37;1.58;
61804;PMS7003;47725;47.912;7.356;2022-09-25T00:13:33;3.15;2.36;
61804;PMS7003;47725;47.912;7.356;2022-09-25T00:17:33;3.15;2.36;
61804;PMS7003;47725;47.912;7.356;2022-09-25T00:21:33;1.58;1.58;
61804;PMS7003;47725;47.912;7.356;2022-09-25T00:25:33;1.58;1.58;
61804;PMS7003;47725;47.912;7.356;2022-09-25T00:29:35;1.58;1.58;
61804;PMS7003;47725;47.912;7.356;2022-09-25T00:33:33;3.14;3.14;
61804;PMS7003;47725;47.912;7.356;2022-09-25T00:37:34;3.14;3.14;
61804;PMS7003;47725;47.912;7.356;2022-09-25T00:41:33;3.14;3.14;
61804;PMS7003;47725;47.912;7.356;2022-09-25T00:45:33;3.14;3.14;
61804;PMS7003;47725;47.912;7.356;2022-09-25T00:49:33;3.14;3.14;
61804;PMS7003;47725;47.912;7.356;2022-09-25T00:53:36;4.70;4.70;
61804;PMS7003;47725;47.912;7.356;2022-09-25T00:57:34;4.70;4.70;
61804;PMS7003;47725;47.912;7.356;2022-09-25T01:01:33;4.72;4.72;
61804;PMS7003;47725;47.912;7.356;2022-09-25T01:05:35;4.72;4.72;
61804;PMS7003;47725;47.912;7.356;2022-09-25T01:09:34;4.72;4.72;
61804;PMS7003;47725;47.912;7.356;2022-09-25T01:13:33;4.69;3.13;
61804;PMS7003;47725;47.912;7.356;2022-09-25T01:21:38;7.07;3.93;
61804;PMS7003;47725;47.912;7.356;2022-09-25T01:29:38;7.07;3.93;
61804;PMS7003;47725;47.912;7.356;2022-09-25T01:33:34;6.28;6.28;
61804;PMS7003;47725;47.912;7.356;2022-09-25T01:41:49;4.75;3.95;
61804;PMS7003;47725;47.912;7.356;2022-09-25T01:45:43;4.75;3.95;
61804;PMS7003;47725;47.912;7.356;2022-09-25T01:49:43;4.75;3.95;
61804;PMS7003;47725;47.912;7.356;2022-09-25T01:53:41;3.17;3.17;
61804;PMS7003;47725;47.912;7.356;2022-09-25T01:57:35;3.17;3.17;
61804;PMS7003;47725;47.912;7.356;2022-09-25T02:01:35;5.52;4.73;
61804;PMS7003;47725;47.912;7.356;2022-09-25T02:05:34;5.52;4.73;
61804;PMS7003;47725;47.912;7.356;2022-09-25T02:09:35;5.52;4.73;
61804;PMS7003;47725;47.912;7.356;2022-09-25T02:13:41;6.19;4.65;
61804;PMS7003;47725;47.912;7.356;2022-09-25T02:25:37;9.32;6.21;
61804;PMS7003;47725;47.912;7.356;2022-09-25T02:29:33;9.32;6.21;
61804;PMS7003;47725;47.912;7.356;2022-09-25T02:33:33;9.26;6.94;
61804;PMS7003;47725;47.912;7.356;2022-09-25T02:37:33;9.26;6.94;
61804;PMS7003;47725;47.912;7.356;2022-09-25T02:49:38;9.34;4.67;
61804;PMS7003;47725;47.912;7.356;2022-09-25T02:53:43;8.55;6.22;
61804;PMS7003;47725;47.912;7.356;2022-09-25T02:57:38;8.55;6.22;
61804;PMS7003;47725;47.912;7.356;2022-09-25T03:01:33;5.43;4.65;
61804;PMS7003;47725;47.912;7.356;2022-09-25T03:05:33;5.43;4.65;
61804;PMS7003;47725;47.912;7.356;2022-09-25T03:09:34;5.43;4.65;
61804;PMS7003;47725;47.912;7.356;2022-09-25T03:13:33;6.23;5.45;
61804;PMS7003;47725;47.912;7.356;2022-09-25T03:17:33;6.23;5.45;
61804;PMS7003;47725;47.912;7.356;2022-09-25T03:21:33;6.96;5.41;
61804;PMS7003;47725;47.912;7.356;2022-09-25T03:25:33;6.96;5.41;
61804;PMS7003;47725;47.912;7.356;2022-09-25T03:29:33;6.96;5.41;
61804;PMS7003;47725;47.912;7.356;2022-09-25T03:33:34;4.66;3.89;
61804;PMS7003;47725;47.912;7.356;2022-09-25T03:37:33;4.66;3.89;
61804;PMS7003;47725;47.912;7.356;2022-09-25T03:41:33;6.97;4.65;
61804;PMS7003;47725;47.912;7.356;2022-09-25T03:45:33;6.97;4.65;
61804;PMS7003;47725;47.912;7.356;2022-09-25T03:49:33;6.97;4.65;
61804;PMS7003;47725;47.912;7.356;2022-09-25T03:53:33;3.86;3.86;
61804;PMS7003;47725;47.912;7.356;2022-09-25T03:57:33;3.86;3.86;
61804;PMS7003;47725;47.912;7.356;2022-09-25T04:01:33;3.85;3.85;
61804;PMS7003;47725;47.912;7.356;2022-09-25T04:05:33;3.85;3.85;
61804;PMS7003;47725;47.912;7.356;2022-09-25T04:09:33;3.85;3.85;
61804;PMS7003;47725;47.912;7.356;2022-09-25T04:13:34;7.24;6.43;
61804;PMS7003;47725;47.912;7.356;2022-09-25T04:17:33;7.24;6.43;
61804;PMS7003;47725;47.912;7.356;2022-09-25T04:21:33;6.46;6.46;
61804;PMS7003;47725;47.912;7.356;2022-09-25T04:25:33;6.46;6.46;
61804;PMS7003;47725;47.912;7.356;2022-09-25T04:29:33;6.46;6.46;
61804;PMS7003;47725;47.912;7.356;2022-09-25T04:33:33;6.22;6.22;
61804;PMS7003;47725;47.912;7.356;2022-09-25T04:37:33;6.22;6.22;
61804;PMS7003;47725;47.912;7.356;2022-09-25T04:41:33;6.92;4.62;
61804;PMS7003;47725;47.912;7.356;2022-09-25T04:45:33;6.92;4.62;
61804;PMS7003;47725;47.912;7.356;2022-09-25T04:49:33;6.92;4.62;
61804;PMS7003;47725;47.912;7.356;2022-09-25T04:53:33;5.37;5.37;
61804;PMS7003;47725;47.912;7.356;2022-09-25T04:57:33;5.37;5.37;
61804;PMS7003;47725;47.912;7.356;2022-09-25T05:01:33;5.37;4.61;
61804;PMS7003;47725;47.912;7.356;2022-09-25T05:05:33;5.37;4.61;
61804;PMS7003;47725;47.912;7.356;2022-09-25T05:09:33;5.37;4.61;
61804;PMS7003;47725;47.912;7.356;2022-09-25T05:13:33;6.88;5.35;
61804;PMS7003;47725;47.912;7.356;2022-09-25T05:17:33;6.88;5.35;
61804;PMS7003;47725;47.912;7.356;2022-09-25T05:21:33;6.86;4.57;
61804;PMS7003;47725;47.912;7.356;2022-09-25T05:25:33;6.86;4.57;
61804;PMS7003;47725;47.912;7.356;2022-09-25T05:29:33;6.86;4.57;
61804;PMS7003;47725;47.912;7.356;2022-09-25T05:33:33;5.40;3.86;
61804;PMS7003;47725;47.912;7.356;2022-09-25T05:37:33;5.40;3.86;
61804;PMS7003;47725;47.912;7.356;2022-09-25T05:41:33;4.61;3.84;
61804;PMS7003;47725;47.912;7.356;2022-09-25T05:45:33;4.61;3.84;
61804;PMS7003;47725;47.912;7.356;2022-09-25T05:49:33;4.61;3.84;
61804;PMS7003;47725;47.912;7.356;2022-09-25T05:53:33;3.86;3.86;
61804;PMS7003;47725;47.912;7.356;2022-09-25T05:57:33;3.86;3.86;
61804;PMS7003;47725;47.912;7.356;2022-09-25T06:01:33;7.76;4.66;
61804;PMS7003;47725;47.912;7.356;2022-09-25T06:05:33;7.76;4.66;
61804;PMS7003;47725;47.912;7.356;2022-09-25T06:09:33;7.76;4.66;
61804;PMS7003;47725;47.912;7.356;2022-09-25T06:13:33;4.66;3.89;
61804;PMS7003;47725;47.912;7.356;2022-09-25T06:17:33;4.66;3.89;
61804;PMS7003;47725;47.912;7.356;2022-09-25T06:21:33;4.55;3.04;
61804;PMS7003;47725;47.912;7.356;2022-09-25T06:25:33;4.55;3.04;
61804;PMS7003;47725;47.912;7.356;2022-09-25T06:29:33;4.55;3.04;
61804;PMS7003;47725;47.912;7.356;2022-09-25T06:33:33;3.82;3.82;
61804;PMS7003;47725;47.912;7.356;2022-09-25T06:37:33;3.82;3.82;
61804;PMS7003;47725;47.912;7.356;2022-09-25T06:41:33;4.52;3.01;
61804;PMS7003;47725;47.912;7.356;2022-09-25T06:45:33;4.52;3.01;
61804;PMS7003;47725;47.912;7.356;2022-09-25T06:49:33;4.52;3.01;
61804;PMS7003;47725;47.912;7.356;2022-09-25T06:53:33;6.79;4.53;
61804;PMS7003;47725;47.912;7.356;2022-09-25T06:57:33;6.79;4.53;
61804;PMS7003;47725;47.912;7.356;2022-09-25T07:01:33;3.76;2.26;
61804;PMS7003;47725;47.912;7.356;2022-09-25T07:05:33;3.76;2.26;
61804;PMS7003;47725;47.912;7.356;2022-09-25T07:09:33;3.76;2.26;
61804;PMS7003;47725;47.912;7.356;2022-09-25T07:13:33;6.02;5.27;
61804;PMS7003;47725;47.912;7.356;2022-09-25T07:17:33;6.02;5.27;
61804;PMS7003;47725;47.912;7.356;2022-09-25T07:21:33;3.75;3.75;
61804;PMS7003;47725;47.912;7.356;2022-09-25T07:25:33;3.75;3.75;
61804;PMS7003;47725;47.912;7.356;2022-09-25T07:29:33;3.75;3.75;
61804;PMS7003;47725;47.912;7.356;2022-09-25T07:33:33;6.04;3.78;
61804;PMS7003;47725;47.912;7.356;2022-09-25T07:37:33;6.04;3.78;
61804;PMS7003;47725;47.912;7.356;2022-09-25T07:41:33;6.81;6.05;
61804;PMS7003;47725;47.912;7.356;2022-09-25T07:45:33;6.81;6.05;
61804;PMS7003;47725;47.912;7.356;2022-09-25T07:49:33;6.81;6.05;
61804;PMS7003;47725;47.912;7.356;2022-09-25T07:53:33;6.10;3.82;
61804;PMS7003;47725;47.912;7.356;2022-09-25T07:57:33;6.10;3.82;
61804;PMS7003;47725;47.912;7.356;2022-09-25T08:01:33;3.80;3.80;
61804;PMS7003;47725;47.912;7.356;2022-09-25T08:05:33;3.80;3.80;
61804;PMS7003;47725;47.912;7.356;2022-09-25T08:09:33;3.80;3.80;
61804;PMS7003;47725;47.912;7.356;2022-09-25T08:13:33;4.57;4.57;
61804;PMS7003;47725;47.912;7.356;2022-09-25T08:17:33;4.57;4.57;
61804;PMS7003;47725;47.912;7.356;2022-09-25T08:21:33;11.37;6.07;
61804;PMS7003;47725;47.912;7.356;2022-09-25T08:25:33;11.37;6.07;
61804;PMS7003;47725;47.912;7.356;2022-09-25T08:29:33;11.37;6.07;
61804;PMS7003;47725;47.912;7.356;2022-09-25T08:33:33;5.33;5.33;
61804;PMS7003;47725;47.912;7.356;2022-09-25T08:37:33;5.33;5.33;
61804;PMS7003;47725;47.912;7.356;2022-09-25T08:41:40;5.32;5.32;
61804;PMS7003;47725;47.912;7.356;2022-09-25T08:45:34;5.32;5.32;
61804;PMS7003;47725;47.912;7.356;2022-09-25T08:49:34;5.32;5.32;
61804;PMS7003;47725;47.912;7.356;2022-09-25T08:53:33;5.33;5.33;
61804;PMS7003;47725;47.912;7.356;2022-09-25T08:57:36;5.33;5.33;
61804;PMS7003;47725;47.912;7.356;2022-09-25T09:01:39;11.48;11.48;
61804;PMS7003;47725;47.912;7.356;2022-09-25T09:05:33;11.48;11.48;
61804;PMS7003;47725;47.912;7.356;2022-09-25T09:09:38;11.48;11.48;
61804;PMS7003;47725;47.912;7.356;2022-09-25T09:17:35;6.15;4.61;
61804;PMS7003;47725;47.912;7.356;2022-09-25T09:21:50;6.13;4.60;
61804;PMS7003;47725;47.912;7.356;2022-09-25T09:25:42;6.13;4.60;
61804;PMS7003;47725;47.912;7.356;2022-09-25T09:33:39;4.63;3.86;
61804;PMS7003;47725;47.912;7.356;2022-09-25T09:41:43;6.97;5.42;
61804;PMS7003;47725;47.912;7.356;2022-09-25T09:49:38;6.97;5.42;
61804;PMS7003;47725;47.912;7.356;2022-09-25T09:53:41;4.73;4.73;
61804;PMS7003;47725;47.912;7.356;2022-09-25T09:57:37;4.73;4.73;
61804;PMS7003;47725;47.912;7.356;2022-09-25T10:01:36;4.14;4.14;
61804;PMS7003;47725;47.912;7.356;2022-09-25T10:05:35;4.14;4.14;
61804;PMS7003;47725;47.912;7.356;2022-09-25T10:09:32;4.14;4.14;
61804;PMS7003;47725;47.912;7.356;2022-09-25T10:13:35;7.53;5.02;
61804;PMS7003;47725;47.912;7.356;2022-09-25T10:17:32;7.53;5.02;
61804;PMS7003;47725;47.912;7.356;2022-09-25T10:21:43;6.77;4.23;
61804;PMS7003;47725;47.912;7.356;2022-09-25T10:25:36;6.77;4.23;
61804;PMS7003;47725;47.912;7.356;2022-09-25T10:29:32;6.77;4.23;
61804;PMS7003;47725;47.912;7.356;2022-09-25T10:33:32;7.76;6.04;
61804;PMS7003;47725;47.912;7.356;2022-09-25T10:37:32;7.76;6.04;
61804;PMS7003;47725;47.912;7.356;2022-09-25T10:41:41;9.62;2.62;
61804;PMS7003;47725;47.912;7.356;2022-09-25T10:45:34;9.62;2.62;
61804;PMS7003;47725;47.912;7.356;2022-09-25T10:49:42;9.62;2.62;
61804;PMS7003;47725;47.912;7.356;2022-09-25T10:53:32;2.66;2.66;
61804;PMS7003;47725;47.912;7.356;2022-09-25T10:57:33;2.66;2.66;
61804;PMS7003;47725;47.912;7.356;2022-09-25T11:01:35;3.55;3.55;
61804;PMS7003;47725;47.912;7.356;2022-09-25T11:05:33;3.55;3.55;
61804;PMS7003;47725;47.912;7.356;2022-09-25T11:09:32;3.55;3.55;
61804;PMS7003;47725;47.912;7.356;2022-09-25T11:13:45;7.22;4.51;
61804;PMS7003;47725;47.912;7.356;2022-09-25T11:17:38;7.22;4.51;
61804;PMS7003;47725;47.912;7.356;2022-09-25T11:21:35;2.72;1.81;
61804;PMS7003;47725;47.912;7.356;2022-09-25T11:25:51;2.72;1.81;
61804;PMS7003;47725;47.912;7.356;2022-09-25T11:41:40;3.66;1.83;
61804;PMS7003;47725;47.912;7.356;2022-09-25T11:45:49;3.66;1.83;
61804;PMS7003;47725;47.912;7.356;2022-09-25T11:49:33;3.66;1.83;
61804;PMS7003;47725;47.912;7.356;2022-09-25T11:53:40;4.57;3.66;
61804;PMS7003;47725;47.912;7.356;2022-09-25T12:01:38;2.76;2.76;
61804;PMS7003;47725;47.912;7.356;2022-09-25T12:05:47;2.76;2.76;
61804;PMS7003;47725;47.912;7.356;2022-09-25T12:21:38;1.82;0.91;
61804;PMS7003;47725;47.912;7.356;2022-09-25T12:37:51;2.73;2.73;
61804;PMS7003;47725;47.912;7.356;2022-09-25T12:41:33;1.83;1.83;
61804;PMS7003;47725;47.912;7.356;2022-09-25T12:45:52;1.83;1.83;
61804;PMS7003;47725;47.912;7.356;2022-09-25T12:49:36;1.83;1.83;
61804;PMS7003;47725;47.912;7.356;2022-09-25T12:53:34;0.00;0.00;
61804;PMS7003;47725;47.912;7.356;2022-09-25T12:57:38;0.00;0.00;
61804;PMS7003;47725;47.912;7.356;2022-09-25T13:01:46;0.92;0.92;
61804;PMS7003;47725;47.912;7.356;2022-09-25T13:05:34;0.92;0.92;
61804;PMS7003;47725;47.912;7.356;2022-09-25T13:09:34;0.92;0.92;
61804;PMS7003;47725;47.912;7.356;2022-09-25T13:13:35;0.00;0.00;
61804;PMS7003;47725;47.912;7.356;2022-09-25T13:17:32;0.00;0.00;
61804;PMS7003;47725;47.912;7.356;2022-09-25T13:21:33;1.84;1.84;
61804;PMS7003;47725;47.912;7.356;2022-09-25T13:25:39;1.84;1.84;
61804;PMS7003;47725;47.912;7.356;2022-09-25T13:29:33;1.84;1.84;
61804;PMS7003;47725;47.912;7.356;2022-09-25T13:33:36;0.92;0.92;
61804;PMS7003;47725;47.912;7.356;2022-09-25T13:37:33;0.92;0.92;
61804;PMS7003;47725;47.912;7.356;2022-09-25T13:41:32;0.92;0.92;
61804;PMS7003;47725;47.912;7.356;2022-09-25T13:45:33;0.92;0.92;
61804;PMS7003;47725;47.912;7.356;2022-09-25T13:49:33;0.92;0.92;
61804;PMS7003;47725;47.912;7.356;2022-09-25T13:53:46;1.85;1.85;
61804;PMS7003;47725;47.912;7.356;2022-09-25T14:01:36;1.85;1.85;
61804;PMS7003;47725;47.912;7.356;2022-09-25T14:05:33;1.85;1.85;
61804;PMS7003;47725;47.912;7.356;2022-09-25T14:09:32;1.85;1.85;
61804;PMS7003;47725;47.912;7.356;2022-09-25T14:13:32;2.78;0.93;
61804;PMS7003;47725;47.912;7.356;2022-09-25T14:17:33;2.78;0.93;
61804;PMS7003;47725;47.912;7.356;2022-09-25T14:21:32;1.85;1.85;
61804;PMS7003;47725;47.912;7.356;2022-09-25T14:25:33;1.85;1.85;
61804;PMS7003;47725;47.912;7.356;2022-09-25T14:29:38;1.85;1.85;
61804;PMS7003;47725;47.912;7.356;2022-09-25T14:41:52;0.94;0.94;
61804;PMS7003;47725;47.912;7.356;2022-09-25T14:45:53;0.94;0.94;
61804;PMS7003;47725;47.912;7.356;2022-09-25T14:49:33;0.94;0.94;
61804;PMS7003;47725;47.912;7.356;2022-09-25T14:53:34;0.00;0.00;
61804;PMS7003;47725;47.912;7.356;2022-09-25T14:57:33;0.00;0.00;
61804;PMS7003;47725;47.912;7.356;2022-09-25T15:01:32;1.87;0.00;
61804;PMS7003;47725;47.912;7.356;2022-09-25T15:05:32;1.87;0.00;
61804;PMS7003;47725;47.912;7.356;2022-09-25T15:09:36;1.87;0.00;
61804;PMS7003;47725;47.912;7.356;2022-09-25T15:13:32;1.88;1.88;
61804;PMS7003;47725;47.912;7.356;2022-09-25T15:17:33;1.88;1.88;
61804;PMS7003;47725;47.912;7.356;2022-09-25T15:21:33;0.94;0.94;
61804;PMS7003;47725;47.912;7.356;2022-09-25T15:25:39;0.94;0.94;
61804;PMS7003;47725;47.912;7.356;2022-09-25T15:29:33;0.94;0.94;
61804;PMS7003;47725;47.912;7.356;2022-09-25T15:33:33;0.00;0.00;
61804;PMS7003;47725;47.912;7.356;2022-09-25T15:37:32;0.00;0.00;
61804;PMS7003;47725;47.912;7.356;2022-09-25T15:41:32;3.77;2.83;
61804;PMS7003;47725;47.912;7.356;2022-09-25T15:45:39;3.77;2.83;
61804;PMS7003;47725;47.912;7.356;2022-09-25T15:49:39;3.77;2.83;
61804;PMS7003;47725;47.912;7.356;2022-09-25T15:53:35;1.89;1.89;
61804;PMS7003;47725;47.912;7.356;2022-09-25T15:57:32;1.89;1.89;
61804;PMS7003;47725;47.912;7.356;2022-09-25T16:01:33;0.00;0.00;
61804;PMS7003;47725;47.912;7.356;2022-09-25T16:05:33;0.00;0.00;
61804;PMS7003;47725;47.912;7.356;2022-09-25T16:09:32;0.00;0.00;
61804;PMS7003;47725;47.912;7.356;2022-09-25T16:13:32;4.72;1.89;
61804;PMS7003;47725;47.912;7.356;2022-09-25T16:17:39;4.72;1.89;
61804;PMS7003;47725;47.912;7.356;2022-09-25T16:21:32;0.94;0.94;
61804;PMS7003;47725;47.912;7.356;2022-09-25T16:25:36;0.94;0.94;
61804;PMS7003;47725;47.912;7.356;2022-09-25T16:29:32;0.94;0.94;
61804;PMS7003;47725;47.912;7.356;2022-09-25T16:33:36;0.94;0.94;
61804;PMS7003;47725;47.912;7.356;2022-09-25T16:37:32;0.94;0.94;
61804;PMS7003;47725;47.912;7.356;2022-09-25T16:41:32;4.65;0.93;
61804;PMS7003;47725;47.912;7.356;2022-09-25T16:45:32;4.65;0.93;
61804;PMS7003;47725;47.912;7.356;2022-09-25T16:49:32;4.65;0.93;
61804;PMS7003;47725;47.912;7.356;2022-09-25T16:53:32;4.62;2.77;
61804;PMS7003;47725;47.912;7.356;2022-09-25T16:57:32;4.62;2.77;
61804;PMS7003;47725;47.912;7.356;2022-09-25T17:01:32;2.77;2.77;
61804;PMS7003;47725;47.912;7.356;2022-09-25T17:05:32;2.77;2.77;
61804;PMS7003;47725;47.912;7.356;2022-09-25T17:09:32;2.77;2.77;
61804;PMS7003;47725;47.912;7.356;2022-09-25T17:13:32;1.83;1.83;
61804;PMS7003;47725;47.912;7.356;2022-09-25T17:17:32;1.83;1.83;
61804;PMS7003;47725;47.912;7.356;2022-09-25T17:21:32;0.92;0.92;
61804;PMS7003;47725;47.912;7.356;2022-09-25T17:25:35;0.92;0.92;
61804;PMS7003;47725;47.912;7.356;2022-09-25T17:29:32;0.92;0.92;
61804;PMS7003;47725;47.912;7.356;2022-09-25T17:33:32;0.91;0.91;
61804;PMS7003;47725;47.912;7.356;2022-09-25T17:37:32;0.91;0.91;
61804;PMS7003;47725;47.912;7.356;2022-09-25T17:41:32;3.63;0.91;
61804;PMS7003;47725;47.912;7.356;2022-09-25T17:45:45;3.63;0.91;
61804;PMS7003;47725;47.912;7.356;2022-09-25T17:49:32;3.63;0.91;
61804;PMS7003;47725;47.912;7.356;2022-09-25T17:53:32;0.91;0.91;
61804;PMS7003;47725;47.912;7.356;2022-09-25T17:57:32;0.91;0.91;
61804;PMS7003;47725;47.912;7.356;2022-09-25T18:01:32;2.71;1.81;
61804;PMS7003;47725;47.912;7.356;2022-09-25T18:05:32;2.71;1.81;
61804;PMS7003;47725;47.912;7.356;2022-09-25T18:09:32;2.71;1.81;
61804;PMS7003;47725;47.912;7.356;2022-09-25T18:13:32;5.41;2.71;
61804;PMS7003;47725;47.912;7.356;2022-09-25T18:17:32;5.41;2.71;
61804;PMS7003;47725;47.912;7.356;2022-09-25T18:21:32;3.60;2.70;
61804;PMS7003;47725;47.912;7.356;2022-09-25T18:25:33;3.60;2.70;
61804;PMS7003;47725;47.912;7.356;2022-09-25T18:29:32;3.60;2.70;
61804;PMS7003;47725;47.912;7.356;2022-09-25T18:33:32;2.68;2.68;
61804;PMS7003;47725;47.912;7.356;2022-09-25T18:37:32;2.68;2.68;
61804;PMS7003;47725;47.912;7.356;2022-09-25T18:41:38;4.46;2.68;
61804;PMS7003;47725;47.912;7.356;2022-09-25T18:45:32;4.46;2.68;
61804;PMS7003;47725;47.912;7.356;2022-09-25T18:49:32;4.46;2.68;
61804;PMS7003;47725;47.912;7.356;2022-09-25T18:53:32;2.68;1.78;
61804;PMS7003;47725;47.912;7.356;2022-09-25T18:57:32;2.68;1.78;
61804;PMS7003;47725;47.912;7.356;2022-09-25T19:01:35;0.89;0.00;
61804;PMS7003;47725;47.912;7.356;2022-09-25T19:05:32;0.89;0.00;
61804;PMS7003;47725;47.912;7.356;2022-09-25T19:09:32;0.89;0.00;
61804;PMS7003;47725;47.912;7.356;2022-09-25T19:13:32;2.69;1.79;
61804;PMS7003;47725;47.912;7.356;2022-09-25T19:17:33;2.69;1.79;
61804;PMS7003;47725;47.912;7.356;2022-09-25T19:21:32;0.00;0.00;
61804;PMS7003;47725;47.912;7.356;2022-09-25T19:25:32;0.00;0.00;
61804;PMS7003;47725;47.912;7.356;2022-09-25T19:29:32;0.00;0.00;
61804;PMS7003;47725;47.912;7.356;2022-09-25T19:33:33;2.67;1.78;
61804;PMS7003;47725;47.912;7.356;2022-09-25T19:37:32;2.67;1.78;
61804;PMS7003;47725;47.912;7.356;2022-09-25T19:41:33;2.68;0.00;
61804;PMS7003;47725;47.912;7.356;2022-09-25T19:45:32;2.68;0.00;
61804;PMS7003;47725;47.912;7.356;2022-09-25T19:49:32;2.68;0.00;
61804;PMS7003;47725;47.912;7.356;2022-09-25T19:53:32;0.00;0.00;
61804;PMS7003;47725;47.912;7.356;2022-09-25T19:57:32;0.00;0.00;
61804;PMS7003;47725;47.912;7.356;2022-09-25T20:01:32;1.76;0.00;
61804;PMS7003;47725;47.912;7.356;2022-09-25T20:05:38;1.76;0.00;
61804;PMS7003;47725;47.912;7.356;2022-09-25T20:09:32;1.76;0.00;
61804;PMS7003;47725;47.912;7.356;2022-09-25T20:13:32;0.87;0.00;
61804;PMS7003;47725;47.912;7.356;2022-09-25T20:17:32;0.87;0.00;
61804;PMS7003;47725;47.912;7.356;2022-09-25T20:21:33;0.00;0.00;
61804;PMS7003;47725;47.912;7.356;2022-09-25T20:25:33;0.00;0.00;
61804;PMS7003;47725;47.912;7.356;2022-09-25T20:29:32;0.00;0.00;
61804;PMS7003;47725;47.912;7.356;2022-09-25T20:33:32;0.00;0.00;
61804;PMS7003;47725;47.912;7.356;2022-09-25T20:37:32;0.00;0.00;
61804;PMS7003;47725;47.912;7.356;2022-09-25T20:41:32;0.00;0.00;
61804;PMS7003;47725;47.912;7.356;2022-09-25T20:45:32;0.00;0.00;
61804;PMS7003;47725;47.912;7.356;2022-09-25T20:49:32;0.00;0.00;
61804;PMS7003;47725;47.912;7.356;2022-09-25T20:53:32;0.00;0.00;
61804;PMS7003;47725;47.912;7.356;2022-09-25T20:57:32;0.00;0.00;
61804;PMS7003;47725;47.912;7.356;2022-09-25T21:01:33;0.00;0.00;
61804;PMS7003;47725;47.912;7.356;2022-09-25T21:05:38;0.00;0.00;
61804;PMS7003;47725;47.912;7.356;2022-09-25T21:09:32;0.00;0.00;
61804;PMS7003;47725;47.912;7.356;2022-09-25T21:13:32;0.00;0.00;
61804;PMS7003;47725;47.912;7.356;2022-09-25T21:17:32;0.00;0.00;
61804;PMS7003;47725;47.912;7.356;2022-09-25T21:21:32;0.00;0.00;
61804;PMS7003;47725;47.912;7.356;2022-09-25T21:25:32;0.00;0.00;
61804;PMS7003;47725;47.912;7.356;2022-09-25T21:29:32;0.00;0.00;
61804;PMS7003;47725;47.912;7.356;2022-09-25T21:33:32;2.55;0.85;
61804;PMS7003;47725;47.912;7.356;2022-09-25T21:37:32;2.55;0.85;
61804;PMS7003;47725;47.912;7.356;2022-09-25T21:41:32;2.53;0.84;
61804;PMS7003;47725;47.912;7.356;2022-09-25T21:45:32;2.53;0.84;
61804;PMS7003;47725;47.912;7.356;2022-09-25T21:49:32;2.53;0.84;
61804;PMS7003;47725;47.912;7.356;2022-09-25T21:53:32;0.00;0.00;
61804;PMS7003;47725;47.912;7.356;2022-09-25T21:57:32;0.00;0.00;
61804;PMS7003;47725;47.912;7.356;2022-09-25T22:01:32;0.00;0.00;
61804;PMS7003;47725;47.912;7.356;2022-09-25T22:05:32;0.00;0.00;
61804;PMS7003;47725;47.912;7.356;2022-09-25T22:09:32;0.00;0.00;
61804;PMS7003;47725;47.912;7.356;2022-09-25T22:13:33;0.84;0.84;
61804;PMS7003;47725;47.912;7.356;2022-09-25T22:17:32;0.84;0.84;
61804;PMS7003;47725;47.912;7.356;2022-09-25T22:21:32;0.00;0.00;
61804;PMS7003;47725;47.912;7.356;2022-09-25T22:25:34;0.00;0.00;
61804;PMS7003;47725;47.912;7.356;2022-09-25T22:29:33;0.00;0.00;
61804;PMS7003;47725;47.912;7.356;2022-09-25T22:33:32;0.83;0.00;
61804;PMS7003;47725;47.912;7.356;2022-09-25T22:37:32;0.83;0.00;
61804;PMS7003;47725;47.912;7.356;2022-09-25T22:41:32;0.00;0.00;
61804;PMS7003;47725;47.912;7.356;2022-09-25T22:45:32;0.00;0.00;
61804;PMS7003;47725;47.912;7.356;2022-09-25T22:49:32;0.00;0.00;
61804;PMS7003;47725;47.912;7.356;2022-09-25T22:53:32;0.00;0.00;
61804;PMS7003;47725;47.912;7.356;2022-09-25T22:57:32;0.00;0.00;
61804;PMS7003;47725;47.912;7.356;2022-09-25T23:05:34;0.00;0.00;
61804;PMS7003;47725;47.912;7.356;2022-09-25T23:09:32;0.00;0.00;
61804;PMS7003;47725;47.912;7.356;2022-09-25T23:13:32;0.81;0.81;
61804;PMS7003;47725;47.912;7.356;2022-09-25T23:17:32;0.81;0.81;
61804;PMS7003;47725;47.912;7.356;2022-09-25T23:21:32;0.80;0.80;
61804;PMS7003;47725;47.912;7.356;2022-09-25T23:25:32;0.80;0.80;
61804;PMS7003;47725;47.912;7.356;2022-09-25T23:29:32;0.80;0.80;
61804;PMS7003;47725;47.912;7.356;2022-09-25T23:33:32;0.00;0.00;
61804;PMS7003;47725;47.912;7.356;2022-09-25T23:37:32;0.00;0.00;
61804;PMS7003;47725;47.912;7.356;2022-09-25T23:41:32;0.00;0.00;
61804;PMS7003;47725;47.912;7.356;2022-09-25T23:45:31;0.00;0.00;
61804;PMS7003;47725;47.912;7.356;2022-09-25T23:49:31;0.00;0.00;
61804;PMS7003;47725;47.912;7.356;2022-09-25T23:53:32;0.81;0.81;
61804;PMS7003;47725;47.912;7.356;2022-09-25T23:57:34;0.81;0.81;
